Time;durP1;ratioP1;P1;durP2;ratioP2;P2;SDS_P1;SDS_P2;PMS_P1;PMS_P2;Temp;Humidity;BMP_temperature;BMP_pressure;BME280_temperature;BME280_humidity;BME280_pressure;Samples;Min_cycle;Max_cycle;Signal;HPM_P1;HPM_P2
2022/02/17 00:00:01;;;;;;;20.30;2.50;;;;;;;;;;4989057;28;20137;-61
2022/02/17 00:02:28;;;;;;;23.05;2.85;;;;;;;;;;4972965;28;20053;-61
2022/02/17 00:04:54;;;;;;;18.67;2.15;;;;;;;;;;4979391;28;20058;-61
2022/02/17 00:07:21;;;;;;;12.07;1.23;;;;;;;;;;4996292;28;20047;-59
2022/02/17 00:09:50;;;;;;;13.50;1.67;;;;;;;;;;5001820;28;20086;-62
2022/02/17 00:12:17;;;;;;;14.23;1.98;;;;;;;;;;4973957;28;20057;-58
2022/02/17 00:14:47;;;;;;;19.65;2.22;;;;;;;;;;4988612;28;20070;-61
2022/02/17 00:17:14;;;;;;;9.20;1.50;;;;;;;;;;4983243;28;20134;-60
2022/02/17 00:19:42;;;;;;;11.10;1.63;;;;;;;;;;5005081;28;20050;-61
2022/02/17 00:22:08;;;;;;;14.57;1.67;;;;;;;;;;4986348;28;20069;-58
2022/02/17 00:24:35;;;;;;;11.93;1.80;;;;;;;;;;5005606;28;20305;-59
2022/02/17 00:27:03;;;;;;;11.38;1.45;;;;;;;;;;4998790;28;20050;-59
2022/02/17 00:29:30;;;;;;;9.15;1.60;;;;;;;;;;4989381;28;20149;-60
2022/02/17 00:31:57;;;;;;;17.35;1.50;;;;;;;;;;4983909;28;20145;-61
2022/02/17 00:34:23;;;;;;;10.32;1.73;;;;;;;;;;5003494;28;20081;-62
2022/02/17 00:36:50;;;;;;;11.98;2.30;;;;;;;;;;4988034;28;20061;-61
2022/02/17 00:39:17;;;;;;;20.92;1.90;;;;;;;;;;4997564;28;20141;-62
2022/02/17 00:41:43;;;;;;;11.60;1.83;;;;;;;;;;4988552;28;20054;-60
2022/02/17 00:44:13;;;;;;;11.80;1.70;;;;;;;;;;4997835;28;20105;-60
2022/02/17 00:46:39;;;;;;;9.13;1.50;;;;;;;;;;5004733;28;20134;-60
2022/02/17 00:49:06;;;;;;;10.35;1.70;;;;;;;;;;4988977;28;20081;-60
2022/02/17 00:51:33;;;;;;;12.40;1.50;;;;;;;;;;5005381;28;20054;-61
2022/02/17 00:54:00;;;;;;;16.98;2.08;;;;;;;;;;4982798;28;20054;-61
2022/02/17 00:56:26;;;;;;;15.02;1.80;;;;;;;;;;4988516;28;20108;-62
2022/02/17 00:58:54;;;;;;;11.95;1.90;;;;;;;;;;4998012;28;20100;-61
2022/02/17 01:01:22;;;;;;;18.75;2.95;;;;;;;;;;4970032;28;20057;-62
2022/02/17 01:03:48;;;;;;;11.50;2.03;;;;;;;;;;4969473;28;20050;-60
2022/02/17 01:06:15;;;;;;;10.55;2.00;;;;;;;;;;4988274;28;20105;-59
2022/02/17 01:08:42;;;;;;;13.98;2.45;;;;;;;;;;4983106;28;20058;-60
2022/02/17 01:11:09;;;;;;;9.15;1.25;;;;;;;;;;4988223;28;20077;-60
2022/02/17 01:13:35;;;;;;;7.82;1.33;;;;;;;;;;4987451;28;20057;-61
2022/02/17 01:16:02;;;;;;;4.70;0.70;;;;;;;;;;4987591;28;20085;-61
2022/02/17 01:18:30;;;;;;;8.15;1.42;;;;;;;;;;5004271;28;20050;-61
2022/02/17 01:20:57;;;;;;;6.50;1.20;;;;;;;;;;4995195;28;20054;-59
2022/02/17 01:23:24;;;;;;;9.23;1.20;;;;;;;;;;4984723;28;20058;-59
2022/02/17 01:25:50;;;;;;;7.72;1.42;;;;;;;;;;4998133;28;20064;-59
2022/02/17 01:28:19;;;;;;;14.55;2.13;;;;;;;;;;5003475;28;20128;-60
2022/02/17 01:30:46;;;;;;;10.60;1.42;;;;;;;;;;4998640;28;20058;-60
2022/02/17 01:33:13;;;;;;;7.32;1.45;;;;;;;;;;4987681;28;20081;-60
2022/02/17 01:35:41;;;;;;;10.43;1.40;;;;;;;;;;4981962;28;20068;-59
2022/02/17 01:38:08;;;;;;;12.87;1.80;;;;;;;;;;5003815;28;20078;-62
2022/02/17 01:40:35;;;;;;;16.33;1.92;;;;;;;;;;4998498;28;20062;-59
2022/02/17 01:43:02;;;;;;;15.32;2.47;;;;;;;;;;5003429;28;20085;-60
2022/02/17 01:45:28;;;;;;;14.32;2.90;;;;;;;;;;4997970;28;20062;-59
2022/02/17 01:47:55;;;;;;;14.95;1.80;;;;;;;;;;4987180;28;20127;-61
2022/02/17 01:50:22;;;;;;;22.17;2.53;;;;;;;;;;4982224;28;20046;-59
2022/02/17 01:52:50;;;;;;;16.98;2.25;;;;;;;;;;4987140;28;20070;-57
2022/02/17 01:55:16;;;;;;;15.97;2.17;;;;;;;;;;4982655;28;20058;-61
2022/02/17 01:57:43;;;;;;;17.63;2.35;;;;;;;;;;4998468;28;20340;-60
2022/02/17 02:00:11;;;;;;;19.55;2.65;;;;;;;;;;5004708;28;20116;-58
2022/02/17 02:02:38;;;;;;;30.75;4.35;;;;;;;;;;4997592;28;20153;-61
2022/02/17 02:05:05;;;;;;;23.27;2.90;;;;;;;;;;5003546;28;20138;-60
2022/02/17 02:07:31;;;;;;;30.00;3.72;;;;;;;;;;4984893;28;20046;-61
2022/02/17 02:10:00;;;;;;;24.75;2.67;;;;;;;;;;4988496;28;20050;-61
2022/02/17 02:12:26;;;;;;;21.05;3.45;;;;;;;;;;4994206;28;20065;-59
2022/02/17 02:14:53;;;;;;;32.55;2.72;;;;;;;;;;4991235;28;20046;-60
2022/02/17 02:17:21;;;;;;;20.45;2.72;;;;;;;;;;4981676;28;20062;-61
2022/02/17 02:19:50;;;;;;;18.38;3.03;;;;;;;;;;4987575;28;20260;-60
2022/02/17 02:22:18;;;;;;;30.42;3.70;;;;;;;;;;4991595;28;20062;-60
2022/02/17 02:24:45;;;;;;;23.60;2.70;;;;;;;;;;4987382;28;20128;-60
2022/02/17 02:27:12;;;;;;;19.00;2.58;;;;;;;;;;4985318;28;20073;-59
2022/02/17 02:29:39;;;;;;;25.10;3.75;;;;;;;;;;4987450;28;20054;-62
2022/02/17 02:32:07;;;;;;;26.85;3.38;;;;;;;;;;4982378;28;20046;-62
2022/02/17 02:34:34;;;;;;;15.68;2.47;;;;;;;;;;4989980;28;20054;-62
2022/02/17 02:37:00;;;;;;;14.27;2.45;;;;;;;;;;4984624;28;20055;-61
2022/02/17 02:39:29;;;;;;;20.25;2.40;;;;;;;;;;4987320;28;20062;-59
2022/02/17 02:41:55;;;;;;;15.50;2.45;;;;;;;;;;4982985;28;20066;-58
2022/02/17 02:44:22;;;;;;;20.70;2.88;;;;;;;;;;4986041;28;20117;-59
2022/02/17 02:46:48;;;;;;;17.00;2.25;;;;;;;;;;4979788;28;20169;-59
2022/02/17 02:49:15;;;;;;;15.23;2.00;;;;;;;;;;4979681;28;20061;-60
2022/02/17 02:51:41;;;;;;;12.60;1.85;;;;;;;;;;4986447;28;20116;-58
2022/02/17 02:54:08;;;;;;;16.98;2.30;;;;;;;;;;4992754;28;20141;-60
2022/02/17 02:56:36;;;;;;;14.27;2.35;;;;;;;;;;5003009;28;20117;-59
2022/02/17 02:59:04;;;;;;;22.35;2.63;;;;;;;;;;4991832;28;20065;-60
2022/02/17 03:01:30;;;;;;;18.90;2.75;;;;;;;;;;4995865;28;20137;-58
2022/02/17 03:03:57;;;;;;;18.60;2.22;;;;;;;;;;4990419;28;20050;-57
2022/02/17 03:06:23;;;;;;;16.02;2.00;;;;;;;;;;4996371;28;20100;-60
2022/02/17 03:08:50;;;;;;;15.35;1.52;;;;;;;;;;4984126;28;20165;-58
2022/02/17 03:11:17;;;;;;;10.45;1.70;;;;;;;;;;4989715;28;20076;-59
2022/02/17 03:13:45;;;;;;;14.32;1.92;;;;;;;;;;4984391;28;20046;-59
2022/02/17 03:16:12;;;;;;;21.35;2.83;;;;;;;;;;4990055;28;20061;-61
2022/02/17 03:18:38;;;;;;;14.85;1.95;;;;;;;;;;5000954;28;20054;-58
2022/02/17 03:21:05;;;;;;;16.70;2.30;;;;;;;;;;4989940;28;20054;-58
2022/02/17 03:23:32;;;;;;;18.33;2.03;;;;;;;;;;4986497;28;20069;-59
2022/02/17 03:26:00;;;;;;;11.73;1.42;;;;;;;;;;5004863;28;20061;-59
2022/02/17 03:28:26;;;;;;;18.90;2.55;;;;;;;;;;5005613;28;20050;-58
2022/02/17 03:30:55;;;;;;;18.95;2.10;;;;;;;;;;4984584;28;20061;-58
2022/02/17 03:33:25;;;;;;;9.05;2.00;;;;;;;;;;5006765;28;20137;-59
2022/02/17 03:35:52;;;;;;;17.05;2.83;;;;;;;;;;4985692;28;20058;-62
2022/02/17 03:38:18;;;;;;;7.93;1.13;;;;;;;;;;4989806;28;20113;-59
2022/02/17 03:40:45;;;;;;;8.85;1.13;;;;;;;;;;4984082;28;20054;-58
2022/02/17 03:43:12;;;;;;;13.02;1.85;;;;;;;;;;4989687;28;20057;-58
2022/02/17 03:45:38;;;;;;;14.18;1.85;;;;;;;;;;4990386;28;20150;-57
2022/02/17 03:48:08;;;;;;;17.45;1.95;;;;;;;;;;5004743;28;20050;-62
2022/02/17 03:50:35;;;;;;;16.85;2.05;;;;;;;;;;4983663;28;20054;-58
2022/02/17 03:53:01;;;;;;;18.52;2.28;;;;;;;;;;5005600;28;20114;-59
2022/02/17 03:55:28;;;;;;;20.92;2.47;;;;;;;;;;4997463;28;20074;-61
2022/02/17 03:57:55;;;;;;;19.23;2.58;;;;;;;;;;5002910;28;20129;-61
2022/02/17 04:00:21;;;;;;;15.73;2.47;;;;;;;;;;5000573;28;20046;-61
2022/02/17 04:02:48;;;;;;;15.32;1.70;;;;;;;;;;5006095;28;20050;-60
2022/02/17 04:05:15;;;;;;;22.58;2.88;;;;;;;;;;5000565;28;20066;-62
2022/02/17 04:07:42;;;;;;;18.40;1.80;;;;;;;;;;4990749;28;20045;-62
2022/02/17 04:10:09;;;;;;;22.13;2.85;;;;;;;;;;5008072;28;20313;-59
2022/02/17 04:12:35;;;;;;;17.70;2.33;;;;;;;;;;4998989;28;20062;-61
2022/02/17 04:15:02;;;;;;;27.90;2.58;;;;;;;;;;4989127;28;20081;-58
2022/02/17 04:17:29;;;;;;;18.90;2.05;;;;;;;;;;4984580;28;20058;-60
2022/02/17 04:19:57;;;;;;;16.88;2.00;;;;;;;;;;4989133;28;20058;-60
2022/02/17 04:22:25;;;;;;;15.73;2.00;;;;;;;;;;4992664;28;20138;-60
2022/02/17 04:24:52;;;;;;;12.37;2.10;;;;;;;;;;4989106;28;20093;-61
2022/02/17 04:27:18;;;;;;;8.35;1.13;;;;;;;;;;4982983;28;20348;-60
2022/02/17 04:29:47;;;;;;;15.32;2.05;;;;;;;;;;5002474;28;20077;-57
2022/02/17 04:32:13;;;;;;;;;;;;;;;;;;4973430;28;20141;-60
2022/02/17 04:34:40;;;;;;;20.08;1.98;;;;;;;;;;4988586;28;20024;-59
2022/02/17 04:37:07;;;;;;;18.30;2.05;;;;;;;;;;4985662;28;20056;-61
2022/02/17 04:39:36;;;;;;;18.85;2.92;;;;;;;;;;4988635;28;20081;-61
2022/02/17 04:42:20;;;;;;;19.52;2.40;;;;;;;;;;4983039;28;20053;-62
2022/02/17 04:44:47;;;;;;;21.30;1.95;;;;;;;;;;4988590;28;20057;-58
2022/02/17 04:47:14;;;;;;;12.80;1.85;;;;;;;;;;4982944;28;20141;-59
2022/02/17 04:49:42;;;;;;;19.90;2.15;;;;;;;;;;4988290;28;20054;-61
2022/02/17 04:52:08;;;;;;;18.92;2.05;;;;;;;;;;4982704;28;20085;-62
2022/02/17 04:54:37;;;;;;;15.48;3.50;;;;;;;;;;4988688;28;20046;-59
2022/02/17 04:57:04;;;;;;;24.63;3.38;;;;;;;;;;4988667;28;20059;-59
2022/02/17 04:59:30;;;;;;;15.30;2.50;;;;;;;;;;4985990;28;20090;-57
2022/02/17 05:01:57;;;;;;;16.88;2.63;;;;;;;;;;4994805;28;20101;-59
2022/02/17 05:04:23;;;;;;;34.55;3.13;;;;;;;;;;4992968;28;20057;-59
2022/02/17 05:06:50;;;;;;;26.55;3.45;;;;;;;;;;5021063;28;20149;-61
2022/02/17 05:09:17;;;;;;;26.92;3.08;;;;;;;;;;4994755;28;20053;-61
2022/02/17 05:11:45;;;;;;;19.58;2.80;;;;;;;;;;4998576;28;20081;-60
2022/02/17 05:14:11;;;;;;;21.50;2.43;;;;;;;;;;4994533;28;20107;-60
2022/02/17 05:16:38;;;;;;;16.95;2.08;;;;;;;;;;5013503;28;20061;-62
2022/02/17 05:19:05;;;;;;;20.83;3.45;;;;;;;;;;4996248;28;20085;-61
2022/02/17 05:21:31;;;;;;;24.35;2.67;;;;;;;;;;4998176;28;20045;-60
2022/02/17 05:23:58;;;;;;;22.58;3.10;;;;;;;;;;4991856;28;20116;-59
2022/02/17 05:26:24;;;;;;;23.80;3.08;;;;;;;;;;5004006;28;20050;-61
2022/02/17 05:28:52;;;;;;;18.27;2.38;;;;;;;;;;4993204;28;20054;-60
2022/02/17 05:31:19;;;;;;;18.80;2.15;;;;;;;;;;5000437;28;20117;-58
2022/02/17 05:33:45;;;;;;;17.67;3.38;;;;;;;;;;4991398;28;20049;-57
2022/02/17 05:36:12;;;;;;;17.08;2.65;;;;;;;;;;5015616;28;20120;-62
2022/02/17 05:38:41;;;;;;;21.27;2.58;;;;;;;;;;5012913;28;20060;-58
2022/02/17 05:41:07;;;;;;;22.73;2.20;;;;;;;;;;4994493;28;20053;-61
2022/02/17 05:43:34;;;;;;;17.95;1.70;;;;;;;;;;5002896;28;20321;-58
2022/02/17 05:46:01;;;;;;;9.73;1.45;;;;;;;;;;5005019;28;20046;-61
2022/02/17 05:48:28;;;;;;;14.00;1.50;;;;;;;;;;5012334;28;20057;-62
2022/02/17 05:50:55;;;;;;;9.13;1.20;;;;;;;;;;4994034;28;20136;-62
2022/02/17 05:53:21;;;;;;;16.13;1.58;;;;;;;;;;4998408;28;20148;-59
2022/02/17 05:55:48;;;;;;;11.02;1.15;;;;;;;;;;5006938;28;20050;-61
2022/02/17 05:58:15;;;;;;;16.63;2.53;;;;;;;;;;4997403;28;20136;-59
2022/02/17 06:00:42;;;;;;;17.73;3.92;;;;;;;;;;4989802;28;20042;-62
2022/02/17 06:03:10;;;;;;;13.50;1.42;;;;;;;;;;4995715;28;20049;-61
2022/02/17 06:05:36;;;;;;;9.63;1.40;;;;;;;;;;5000781;28;20054;-59
2022/02/17 06:08:05;;;;;;;14.13;1.88;;;;;;;;;;4997366;28;20054;-61
2022/02/17 06:10:32;;;;;;;16.48;2.42;;;;;;;;;;4990060;28;20046;-59
2022/02/17 06:12:58;;;;;;;12.95;2.40;;;;;;;;;;4995553;28;20060;-61
2022/02/17 06:15:26;;;;;;;14.10;2.67;;;;;;;;;;4988480;28;20061;-61
2022/02/17 06:17:52;;;;;;;12.35;2.10;;;;;;;;;;5013542;28;20054;-62
2022/02/17 06:20:23;;;;;;;15.23;2.03;;;;;;;;;;4994058;28;20088;-61
2022/02/17 06:22:51;;;;;;;21.42;2.45;;;;;;;;;;4961969;28;20062;-63
2022/02/17 06:25:19;;;;;;;7.53;0.93;;;;;;;;;;4996626;28;20050;-59
2022/02/17 06:27:46;;;;;;;15.27;1.98;;;;;;;;;;5007049;28;20100;-61
2022/02/17 06:30:13;;;;;;;9.25;1.65;;;;;;;;;;4993876;28;20060;-56
2022/02/17 06:32:45;;;;;;;16.05;1.63;;;;;;;;;;4999092;28;20054;-57
2022/02/17 06:35:13;;;;;;;12.18;1.58;;;;;;;;;;5007811;28;20077;-59
2022/02/17 06:37:41;;;;;;;12.07;1.80;;;;;;;;;;4992944;28;20054;-63
2022/02/17 06:40:08;;;;;;;10.23;1.47;;;;;;;;;;4991577;28;20145;-56
2022/02/17 06:42:34;;;;;;;15.77;2.10;;;;;;;;;;4993583;28;20333;-60
2022/02/17 06:45:02;;;;;;;7.47;1.45;;;;;;;;;;4990655;28;20089;-57
2022/02/17 06:47:29;;;;;;;15.02;1.55;;;;;;;;;;4985706;28;20070;-59
2022/02/17 06:49:56;;;;;;;16.30;3.03;;;;;;;;;;5006903;28;20064;-61
2022/02/17 06:52:23;;;;;;;11.63;1.33;;;;;;;;;;4984592;28;20054;-58
2022/02/17 06:54:51;;;;;;;16.48;2.67;;;;;;;;;;4990241;28;20340;-57
2022/02/17 06:57:21;;;;;;;12.38;1.95;;;;;;;;;;4985684;28;20145;-59
2022/02/17 06:59:48;;;;;;;13.43;1.92;;;;;;;;;;5005779;28;20104;-61
2022/02/17 07:02:15;;;;;;;6.70;1.52;;;;;;;;;;4983628;28;20070;-60
2022/02/17 07:04:42;;;;;;;7.50;1.27;;;;;;;;;;4987435;28;20058;-60
2022/02/17 07:07:08;;;;;;;12.52;1.60;;;;;;;;;;4988666;28;20141;-61
2022/02/17 07:09:35;;;;;;;8.10;1.77;;;;;;;;;;4983835;28;20050;-57
2022/02/17 07:12:03;;;;;;;5.68;1.38;;;;;;;;;;4990850;28;20062;-60
2022/02/17 07:14:30;;;;;;;18.88;1.73;;;;;;;;;;4998114;28;20061;-61
2022/02/17 07:16:59;;;;;;;8.85;1.55;;;;;;;;;;5009630;28;20058;-62
2022/02/17 07:19:26;;;;;;;9.68;1.45;;;;;;;;;;4988928;28;20046;-57
2022/02/17 07:21:53;;;;;;;6.05;1.20;;;;;;;;;;4990180;28;20054;-58
2022/02/17 07:24:19;;;;;;;7.90;1.60;;;;;;;;;;4984416;28;20077;-58
2022/02/17 07:26:46;;;;;;;13.77;1.70;;;;;;;;;;4988770;28;20078;-61
2022/02/17 07:29:15;;;;;;;10.75;1.48;;;;;;;;;;4991659;28;20096;-58
2022/02/17 07:31:42;;;;;;;9.05;1.90;;;;;;;;;;4989347;28;20057;-57
2022/02/17 07:34:09;;;;;;;10.40;1.58;;;;;;;;;;4996534;28;20055;-57
2022/02/17 07:36:35;;;;;;;9.93;1.67;;;;;;;;;;4969672;28;20078;-61
2022/02/17 07:39:04;;;;;;;17.48;1.65;;;;;;;;;;4969837;28;20133;-61
2022/02/17 07:41:31;;;;;;;;;;;;;;;;;;4989847;28;20061;-60
2022/02/17 07:44:00;;;;;;;15.45;1.88;;;;;;;;;;4984073;28;19926;-59
2022/02/17 07:46:28;;;;;;;17.27;2.20;;;;;;;;;;5005639;28;20061;-56
2022/02/17 07:48:55;;;;;;;14.75;1.73;;;;;;;;;;4984580;28;20070;-57
2022/02/17 07:51:22;;;;;;;16.05;1.92;;;;;;;;;;4989177;28;20054;-61
2022/02/17 07:53:48;;;;;;;11.23;1.08;;;;;;;;;;4989316;28;20141;-60
2022/02/17 07:56:15;;;;;;;6.03;1.27;;;;;;;;;;4996241;28;20069;-62
2022/02/17 07:58:43;;;;;;;11.15;1.67;;;;;;;;;;5002323;28;20113;-62
2022/02/17 08:01:10;;;;;;;;;;;;;;;;;;4997275;28;20054;-62
2022/02/17 08:03:39;;;;;;;10.35;1.38;;;;;;;;;;4969909;28;19981;-60
2022/02/17 08:06:06;;;;;;;11.10;1.33;;;;;;;;;;4976802;28;20050;-59
2022/02/17 08:08:34;;;;;;;9.07;1.13;;;;;;;;;;4989269;28;20054;-60
2022/02/17 08:11:01;;;;;;;14.43;1.73;;;;;;;;;;4991289;28;20093;-58
2022/02/17 08:13:28;;;;;;;11.18;1.20;;;;;;;;;;4990058;28;20042;-59
2022/02/17 08:15:55;;;;;;;14.93;1.42;;;;;;;;;;4985421;28;20058;-62
2022/02/17 08:18:23;;;;;;;14.38;1.98;;;;;;;;;;5007620;28;20054;-62
2022/02/17 08:20:51;;;;;;;9.50;1.67;;;;;;;;;;4998265;28;20066;-62
2022/02/17 08:23:19;;;;;;;3.22;1.02;;;;;;;;;;4989287;28;20081;-56
2022/02/17 08:25:45;;;;;;;9.10;2.08;;;;;;;;;;4983022;28;20054;-58
2022/02/17 08:28:12;;;;;;;9.90;1.15;;;;;;;;;;4988974;28;20073;-59
2022/02/17 08:30:39;;;;;;;13.02;1.90;;;;;;;;;;4982812;28;20104;-63
2022/02/17 08:33:06;;;;;;;12.05;1.73;;;;;;;;;;5004812;28;20074;-56
2022/02/17 08:35:32;;;;;;;16.90;3.35;;;;;;;;;;4988462;28;20117;-63
2022/02/17 08:38:01;;;;;;;17.83;1.65;;;;;;;;;;4997813;28;20054;-62
2022/02/17 08:40:27;;;;;;;;;;;;;;;;;;4989278;28;20054;-62
2022/02/17 08:42:54;;;;;;;10.02;1.35;;;;;;;;;;4986190;28;19932;-59
2022/02/17 08:45:20;;;;;;;11.38;1.60;;;;;;;;;;4988387;28;20057;-62
2022/02/17 08:47:47;;;;;;;13.48;1.40;;;;;;;;;;4991205;28;20046;-62
2022/02/17 08:50:13;;;;;;;9.77;1.30;;;;;;;;;;4987911;28;20046;-60
2022/02/17 08:52:40;;;;;;;17.92;1.48;;;;;;;;;;4982422;28;20047;-60
2022/02/17 08:55:09;;;;;;;13.45;1.70;;;;;;;;;;4987053;28;20109;-57
2022/02/17 08:57:35;;;;;;;6.40;1.23;;;;;;;;;;4986928;28;20056;-63
2022/02/17 09:00:02;;;;;;;9.07;1.13;;;;;;;;;;4988031;28;20062;-59
2022/02/17 09:02:29;;;;;;;5.45;1.02;;;;;;;;;;4985190;28;20060;-59
2022/02/17 09:04:56;;;;;;;4.93;0.77;;;;;;;;;;4990962;28;20077;-59
2022/02/17 09:07:24;;;;;;;9.40;1.47;;;;;;;;;;4998138;28;20050;-61
2022/02/17 09:09:52;;;;;;;9.70;1.25;;;;;;;;;;4962797;28;20392;-58
2022/02/17 09:12:20;;;;;;;10.80;2.05;;;;;;;;;;4986524;28;20062;-57
2022/02/17 09:14:47;;;;;;;15.68;1.83;;;;;;;;;;5010699;28;20057;-57
2022/02/17 09:17:14;;;;;;;8.20;1.02;;;;;;;;;;4991492;28;20050;-61
2022/02/17 09:19:41;;;;;;;11.98;1.42;;;;;;;;;;4988424;28;20057;-57
2022/02/17 09:22:08;;;;;;;6.45;1.33;;;;;;;;;;5007097;28;20061;-55
2022/02/17 09:24:35;;;;;;;7.93;1.23;;;;;;;;;;5014414;28;20058;-58
2022/02/17 09:27:01;;;;;;;12.10;1.10;;;;;;;;;;5023295;28;20057;-53
2022/02/17 09:29:29;;;;;;;11.15;1.30;;;;;;;;;;5000490;28;20050;-59
2022/02/17 09:31:56;;;;;;;7.10;0.77;;;;;;;;;;5023762;28;20058;-57
2022/02/17 09:34:23;;;;;;;8.32;1.13;;;;;;;;;;5001006;28;20053;-58
2022/02/17 09:36:49;;;;;;;6.88;0.75;;;;;;;;;;5006888;28;20061;-58
2022/02/17 09:39:16;;;;;;;7.60;0.68;;;;;;;;;;5000988;28;20068;-58
2022/02/17 09:41:46;;;;;;;18.02;1.73;;;;;;;;;;5023592;28;20053;-58
2022/02/17 09:44:13;;;;;;;5.63;1.10;;;;;;;;;;5010553;28;20070;-54
2022/02/17 09:46:45;;;;;;;6.93;1.10;;;;;;;;;;5003637;28;20066;-60
2022/02/17 09:49:15;;;;;;;2.95;0.68;;;;;;;;;;4973938;28;20078;-60
2022/02/17 09:51:42;;;;;;;10.60;1.50;;;;;;;;;;4992579;28;20061;-62
2022/02/17 09:54:09;;;;;;;12.52;1.35;;;;;;;;;;5002571;28;20061;-60
2022/02/17 09:56:36;;;;;;;6.25;1.38;;;;;;;;;;5023750;28;20045;-61
2022/02/17 09:59:03;;;;;;;9.82;1.23;;;;;;;;;;5017176;28;20054;-59
2022/02/17 10:01:30;;;;;;;5.07;0.55;;;;;;;;;;5007072;28;20064;-62
2022/02/17 10:04:12;;;;;;;6.70;0.98;;;;;;;;;;5002612;28;20058;-61
2022/02/17 10:06:41;;;;;;;7.28;1.13;;;;;;;;;;4967462;28;20061;-60
2022/02/17 10:09:08;;;;;;;5.55;0.88;;;;;;;;;;4967775;28;20117;-59
2022/02/17 10:11:35;;;;;;;12.82;1.25;;;;;;;;;;4994072;28;20050;-57
2022/02/17 10:14:03;;;;;;;5.25;1.02;;;;;;;;;;4986700;28;20119;-60
2022/02/17 10:16:30;;;;;;;11.97;1.00;;;;;;;;;;4993308;28;20049;-59
2022/02/17 10:19:08;;;;;;;5.57;1.13;;;;;;;;;;5003212;28;20388;-58
2022/02/17 10:21:36;;;;;;;9.70;1.33;;;;;;;;;;4996294;28;20058;-58
2022/02/17 10:24:03;;;;;;;11.35;2.47;;;;;;;;;;5003543;28;20082;-63
2022/02/17 10:26:30;;;;;;;13.82;2.50;;;;;;;;;;4980642;28;20062;-63
2022/02/17 10:28:59;;;;;;;4.35;1.02;;;;;;;;;;4986735;28;20054;-58
2022/02/17 10:31:26;;;;;;;9.63;1.48;;;;;;;;;;4981075;28;20053;-61
2022/02/17 10:33:54;;;;;;;6.75;0.73;;;;;;;;;;5003527;28;20050;-58
2022/02/17 10:36:36;;;;;;;10.65;1.50;;;;;;;;;;5006908;28;20050;-58
2022/02/17 10:39:12;;;;;;;5.35;1.00;;;;;;;;;;4990466;28;20054;-62
2022/02/17 10:41:45;;;;;;;11.27;1.40;;;;;;;;;;4994160;28;20102;-60
2022/02/17 10:44:12;;;;;;;4.80;0.68;;;;;;;;;;4999565;28;20062;-59
2022/02/17 10:46:38;;;;;;;7.97;1.17;;;;;;;;;;4994210;28;20051;-58
2022/02/17 10:49:10;;;;;;;4.55;0.60;;;;;;;;;;5001047;28;20062;-58
2022/02/17 10:51:36;;;;;;;6.00;0.68;;;;;;;;;;4994360;28;20050;-63
2022/02/17 10:54:03;;;;;;;9.25;1.40;;;;;;;;;;4966500;28;20066;-58
2022/02/17 10:56:32;;;;;;;13.48;1.23;;;;;;;;;;4997215;28;20046;-61
2022/02/17 10:59:00;;;;;;;6.10;1.00;;;;;;;;;;5003158;28;20051;-59
2022/02/17 11:01:26;;;;;;;14.50;1.83;;;;;;;;;;4981979;28;20136;-56
2022/02/17 11:03:54;;;;;;;6.90;1.10;;;;;;;;;;4986410;28;20058;-57
2022/02/17 11:06:21;;;;;;;11.85;1.40;;;;;;;;;;4986390;28;20062;-61
2022/02/17 11:08:51;;;;;;;9.02;0.70;;;;;;;;;;4972720;28;20046;-56
2022/02/17 11:11:18;;;;;;;7.55;1.15;;;;;;;;;;4986600;28;20109;-58
2022/02/17 11:13:46;;;;;;;10.93;1.10;;;;;;;;;;4979885;28;20042;-57
2022/02/17 11:16:15;;;;;;;10.85;1.35;;;;;;;;;;4986895;28;20061;-59
2022/02/17 11:18:44;;;;;;;7.57;1.00;;;;;;;;;;4995795;28;20058;-55
2022/02/17 11:21:15;;;;;;;11.38;1.40;;;;;;;;;;5006863;28;20108;-62
2022/02/17 11:23:42;;;;;;;4.65;0.88;;;;;;;;;;4992202;28;20177;-60
2022/02/17 11:26:20;;;;;;;9.40;1.23;;;;;;;;;;4989032;28;20066;-58
2022/02/17 11:28:48;;;;;;;6.28;1.08;;;;;;;;;;4981371;28;20046;-60
2022/02/17 11:31:15;;;;;;;5.28;0.90;;;;;;;;;;4987134;28;20060;-60
2022/02/17 11:33:42;;;;;;;8.65;1.20;;;;;;;;;;4982052;28;20148;-62
2022/02/17 11:36:27;;;;;;;6.22;1.05;;;;;;;;;;4989419;28;20082;-58
2022/02/17 11:38:55;;;;;;;10.63;1.10;;;;;;;;;;4990302;28;20054;-61
2022/02/17 11:41:22;;;;;;;16.77;1.30;;;;;;;;;;5009016;28;20053;-60
2022/02/17 11:43:52;;;;;;;11.70;1.15;;;;;;;;;;4995715;28;20050;-61
2022/02/17 11:46:51;;;;;;;6.00;0.80;;;;;;;;;;4989161;28;20058;-62
2022/02/17 11:49:51;;;;;;;9.02;2.20;;;;;;;;;;4975812;28;20050;-61
2022/02/17 11:52:19;;;;;;;13.73;2.28;;;;;;;;;;4933109;29;20055;-60
2022/02/17 11:55:00;;;;;;;10.17;1.30;;;;;;;;;;4940411;28;20051;-60
2022/02/17 11:57:34;;;;;;;5.43;1.17;;;;;;;;;;4952711;28;20072;-61
2022/02/17 12:00:19;;;;;;;8.77;1.13;;;;;;;;;;4984118;28;20121;-59
2022/02/17 12:02:47;;;;;;;10.55;1.50;;;;;;;;;;4998275;28;20137;-58
2022/02/17 12:05:14;;;;;;;15.20;1.35;;;;;;;;;;4982700;28;20057;-60
2022/02/17 12:07:41;;;;;;;17.05;1.75;;;;;;;;;;4989000;28;20070;-58
2022/02/17 12:10:28;;;;;;;15.82;1.08;;;;;;;;;;4988715;28;20086;-59
2022/02/17 12:12:54;;;;;;;7.05;1.30;;;;;;;;;;4989295;28;20089;-57
2022/02/17 12:15:22;;;;;;;5.32;1.05;;;;;;;;;;4992318;28;20046;-59
2022/02/17 12:17:53;;;;;;;8.40;1.20;;;;;;;;;;4988803;28;20054;-58
2022/02/17 12:20:20;;;;;;;6.70;1.15;;;;;;;;;;4987825;28;20053;-55
2022/02/17 12:22:50;;;;;;;9.82;1.38;;;;;;;;;;4989010;28;20054;-55
2022/02/17 12:25:21;;;;;;;7.35;1.35;;;;;;;;;;4981927;28;20046;-57
2022/02/17 12:27:48;;;;;;;11.27;1.10;;;;;;;;;;4989199;28;20050;-60
2022/02/17 12:30:22;;;;;;;5.90;1.00;;;;;;;;;;4987821;28;20046;-63
2022/02/17 12:32:48;;;;;;;9.93;0.95;;;;;;;;;;5004443;28;20073;-59
2022/02/17 12:35:26;;;;;;;9.80;1.17;;;;;;;;;;4983039;28;20047;-60
2022/02/17 12:38:01;;;;;;;9.93;1.00;;;;;;;;;;4988640;28;20054;-59
2022/02/17 12:40:30;;;;;;;5.28;1.20;;;;;;;;;;4983057;28;20057;-57
2022/02/17 12:42:57;;;;;;;6.63;1.65;;;;;;;;;;4988666;28;20105;-57
2022/02/17 12:45:32;;;;;;;22.98;1.73;;;;;;;;;;4984513;28;20138;-57
2022/02/17 12:48:00;;;;;;;9.98;1.70;;;;;;;;;;4985163;28;20062;-62
2022/02/17 12:50:28;;;;;;;6.50;1.10;;;;;;;;;;4969188;28;20121;-61
2022/02/17 12:52:55;;;;;;;3.30;0.77;;;;;;;;;;4981896;28;20054;-61
2022/02/17 12:55:22;;;;;;;7.60;1.10;;;;;;;;;;4989614;28;20157;-58
2022/02/17 12:57:54;;;;;;;16.33;2.22;;;;;;;;;;4984444;28;20058;-60
2022/02/17 13:00:21;;;;;;;7.72;1.15;;;;;;;;;;4990565;28;20046;-62
2022/02/17 13:02:49;;;;;;;5.85;1.10;;;;;;;;;;4993706;28;20058;-61
2022/02/17 13:05:16;;;;;;;20.70;1.55;;;;;;;;;;4987831;28;20124;-61
2022/02/17 13:07:45;;;;;;;9.50;1.00;;;;;;;;;;4982055;28;20058;-62
2022/02/17 13:10:13;;;;;;;4.38;1.23;;;;;;;;;;4986834;28;20050;-62
2022/02/17 13:12:40;;;;;;;9.10;1.13;;;;;;;;;;4982195;28;20058;-61
2022/02/17 13:15:07;;;;;;;9.30;1.10;;;;;;;;;;5006049;28;20089;-60
2022/02/17 13:17:35;;;;;;;11.93;1.27;;;;;;;;;;4993291;28;20054;-60
2022/02/17 13:20:17;;;;;;;7.67;1.20;;;;;;;;;;4987628;28;20058;-61
2022/02/17 13:22:45;;;;;;;10.85;1.30;;;;;;;;;;4997479;28;20050;-60
2022/02/17 13:25:12;;;;;;;9.00;1.98;;;;;;;;;;4993627;28;20077;-62
2022/02/17 13:27:40;;;;;;;13.82;1.30;;;;;;;;;;4995632;28;20118;-59
2022/02/17 13:30:07;;;;;;;;;;;;;;;;;;4987754;28;20061;-62
2022/02/17 13:32:39;;;;;;;13.55;1.40;;;;;;;;;;4981943;28;19922;-58
2022/02/17 13:35:06;;;;;;;7.50;1.08;;;;;;;;;;4987341;28;20054;-59
2022/02/17 13:37:46;;;;;;;7.93;1.27;;;;;;;;;;4964528;28;20054;-57
2022/02/17 13:40:15;;;;;;;12.50;1.65;;;;;;;;;;5001220;28;20141;-61
2022/02/17 13:42:55;;;;;;;10.07;1.40;;;;;;;;;;4982006;28;20042;-61
2022/02/17 13:45:23;;;;;;;13.57;1.10;;;;;;;;;;4987211;28;20061;-62
2022/02/17 13:47:50;;;;;;;11.65;1.17;;;;;;;;;;4982880;28;20166;-57
2022/02/17 13:50:18;;;;;;;7.37;1.50;;;;;;;;;;4986660;28;20065;-62
2022/02/17 13:52:57;;;;;;;10.47;1.47;;;;;;;;;;4987147;28;20058;-61
2022/02/17 13:55:26;;;;;;;9.35;1.05;;;;;;;;;;4983877;28;20305;-59
2022/02/17 13:57:53;;;;;;;5.90;0.95;;;;;;;;;;4987791;28;20080;-58
2022/02/17 14:00:26;;;;;;;12.27;1.50;;;;;;;;;;4982827;28;20129;-60
2022/02/17 14:02:53;;;;;;;6.43;1.10;;;;;;;;;;4986803;28;20050;-61
2022/02/17 14:05:28;;;;;;;14.98;0.70;;;;;;;;;;4981824;28;20058;-55
2022/02/17 14:07:55;;;;;;;8.82;0.85;;;;;;;;;;4986643;28;20089;-57
2022/02/17 14:10:21;;;;;;;7.68;1.10;;;;;;;;;;4997630;28;20064;-59
2022/02/17 14:12:49;;;;;;;11.20;1.23;;;;;;;;;;4987261;28;20058;-58
2022/02/17 14:15:16;;;;;;;11.77;1.10;;;;;;;;;;4996897;28;20054;-58
2022/02/17 14:17:43;;;;;;;6.55;1.08;;;;;;;;;;4986648;28;20050;-60
2022/02/17 14:20:09;;;;;;;9.30;1.38;;;;;;;;;;4982046;28;20058;-60
2022/02/17 14:22:36;;;;;;;19.90;2.40;;;;;;;;;;4987906;28;20054;-62
2022/02/17 14:25:03;;;;;;;9.75;1.30;;;;;;;;;;4995493;28;20081;-59
2022/02/17 14:27:29;;;;;;;13.60;1.42;;;;;;;;;;4967946;28;20062;-61
2022/02/17 14:30:00;;;;;;;7.28;0.82;;;;;;;;;;4968958;28;20057;-62
2022/02/17 14:32:26;;;;;;;6.53;1.50;;;;;;;;;;4988555;28;20058;-55
2022/02/17 14:35:11;;;;;;;10.25;1.15;;;;;;;;;;4983393;28;20054;-60
2022/02/17 14:37:37;;;;;;;12.25;1.52;;;;;;;;;;4986160;28;20058;-62
2022/02/17 14:40:05;;;;;;;6.65;0.82;;;;;;;;;;4981290;28;20054;-61